McMicken Heights, Washington
Current Conditions -  °F | °C
As of 3:53 PM on Wednesday 22 Oct 2014 (Local Time) from KSEA Reporting Station
Moderate Rain Moderate Rain  
Wind Chill: 56°   Ceiling: 6500
Heat Index: 56°   Visibility: 5mi
Dew Point: 54°   Wind: 7mph
Humidity: 93%   Direction: 150°SSE
Pressure: 29.65"   Gusts: NA
Location:  47.4488°N, 122.28°W
Report Text: KSEA 222253Z 15006KT 5SM RA BR OVC065 13/12 A2965 RMK AO2 SLP047 P0009 T01330122
Loading
Personal Weather Stations






























Interactive Weather Map
Tropical Storm Tracking
New forecast layout! Learn more

10-Day Weather Forecast

Advertisements
Track Severe Weather on mobile